Portada
METAR-TAF:

METAR-TAF

Aeroports :

Cooma, Austràlia

latitud: 36-18-00S, longitud: 148-58-24E, altitud: 947 m

Observació

L'informe es va fer fa 13 minuts, a les 16:30 UTC
Vent 4 kt del Nord/Nord-Est
Temperatura 10°C
Humitat 100%
Pressió 1027 hPa
Visibilitat: 0450 m
Cel cobert a una alçada de 200 ft

METAR: YCOM 191630Z AUTO 02004KT 0450 // OVC002 10/10 Q1027

Hora: 02:43 (16:43 UTC)


TAF: manca

Observacions i pronòstics meteorològics de més de 4000 aeroports (METAR i TAF).

Les estacions disponibles són els punts grocs i vermells al mapa.

Posi el ratolí al punt desitjat per veure el nom de l'estació.

Feu clic per veure les observacions i els pronòstics meteorològics.

Per canviar el mapa: feu clic els botons verds amb una creu de color negre per apropar; al botó verd amb un guió per allunyar la imatge; o en les fletxes verdes per a mapes adjacents.


METAR-TAF: